Time;durP1;ratioP1;P1;durP2;ratioP2;P2;SDS_P1;SDS_P2;PMS_P1;PMS_P2;Temp;Humidity;BMP_temperature;BMP_pressure;BME280_temperature;BME280_humidity;BME280_pressure;Samples;Min_cycle;Max_cycle;Signal;HPM_P1;HPM_P2
2022/04/06 00:02:04;;;;;;;;;8.50;7.25;;;26.12;97075.97;;;;117048;1193;25239;-40
2022/04/06 00:04:32;;;;;;;;;14.00;8.25;;;26.11;97070.27;;;;117095;1193;24952;-42
2022/04/06 00:07:00;;;;;;;;;9.50;9.00;;;26.11;97064.08;;;;117081;1191;25548;-42
2022/04/06 00:09:28;;;;;;;;;8.67;7.33;;;26.09;97068.29;;;;117038;1193;24841;-40
2022/04/06 00:11:56;;;;;;;;;8.50;7.50;;;26.08;97071.29;;;;117063;1193;24858;-42
2022/04/06 00:14:24;;;;;;;;;9.00;7.75;;;26.05;97070.92;;;;117057;1192;24936;-41
2022/04/06 00:16:51;;;;;;;;;7.50;6.25;;;26.04;97070.19;;;;117031;1193;25035;-40
2022/04/06 00:19:19;;;;;;;;;7.33;7.33;;;26.03;97068.18;;;;117076;1191;25783;-40
2022/04/06 00:21:47;;;;;;;;;11.00;9.00;;;26.02;97065.27;;;;117074;1193;25100;-40
2022/04/06 00:24:15;;;;;;;;;4.50;4.50;;;26.02;97070.25;;;;117049;1193;25492;-41
2022/04/06 00:26:43;;;;;;;;;12.25;9.25;;;26.02;97071.55;;;;116982;1192;25002;-38
2022/04/06 00:29:10;;;;;;;;;7.00;6.00;;;26.01;97074.65;;;;117059;1193;25056;-42
2022/04/06 00:31:38;;;;;;;;;8.33;8.00;;;26.02;97071.66;;;;117086;1193;24905;-41
2022/04/06 00:34:06;;;;;;;;;10.67;7.33;;;26.05;97070.58;;;;117061;1193;26392;-40
2022/04/06 00:36:34;;;;;;;;;8.67;7.00;;;26.06;97071.67;;;;117079;1191;24934;-40
2022/04/06 00:39:03;;;;;;;;;9.50;7.50;;;26.07;97069.28;;;;117100;1193;25527;-41
2022/04/06 00:41:30;;;;;;;;;7.00;7.00;;;26.08;97069.34;;;;117130;1191;25252;-41
2022/04/06 00:44:09;;;;;;;;;6.75;6.25;;;26.10;97069.13;;;;117059;1192;25902;-41
2022/04/06 00:46:37;;;;;;;;;10.50;6.50;;;26.10;97071.27;;;;117081;1193;25084;-41
2022/04/06 00:49:11;;;;;;;;;10.00;7.67;;;26.10;97070.44;;;;117023;1193;25998;-40
2022/04/06 00:51:44;;;;;;;;;8.75;7.25;;;26.13;97065.80;;;;117084;1193;24911;-40
2022/04/06 00:54:18;;;;;;;;;6.50;6.50;;;26.15;97070.21;;;;117047;1193;25472;-41
2022/04/06 00:56:47;;;;;;;;;5.50;5.00;;;26.14;97070.98;;;;117065;1193;25673;-41
2022/04/06 00:59:16;;;;;;;;;8.67;8.33;;;26.14;97070.48;;;;117003;1193;25441;-41
2022/04/06 01:01:45;;;;;;;;;9.33;5.33;;;26.14;97066.84;;;;117090;1193;25655;-41
2022/04/06 01:04:15;;;;;;;;;7.50;7.00;;;26.15;97067.44;;;;117124;1192;25243;-40
2022/04/06 01:06:53;;;;;;;;;6.00;4.75;;;26.15;97067.17;;;;117039;1193;25306;-41
2022/04/06 01:09:21;;;;;;;;;9.00;9.00;;;26.16;97067.36;;;;117050;1192;25482;-40
2022/04/06 01:11:51;;;;;;;;;9.50;8.00;;;26.16;97067.77;;;;117031;1193;25635;-41
2022/04/06 01:14:19;;;;;;;;;8.25;8.00;;;26.15;97071.27;;;;117112;1193;25687;-40
2022/04/06 01:17:06;;;;;;;;;7.00;6.00;;;26.14;97068.76;;;;117013;1193;25435;-39
2022/04/06 01:19:51;;;;;;;;;8.33;8.33;;;26.15;97067.32;;;;117086;1192;25293;-40
2022/04/06 01:22:19;;;;;;;;;9.50;6.00;;;26.16;97068.02;;;;117028;1192;25071;-41
2022/04/06 01:24:48;;;;;;;;;8.33;6.33;;;26.13;97070.02;;;;117102;1193;24838;-40
2022/04/06 01:27:16;;;;;;;;;6.00;5.00;;;26.12;97062.67;;;;116994;1193;25676;-40
2022/04/06 01:29:44;;;;;;;;;7.50;7.25;;;26.09;97064.58;;;;117089;1191;25088;-41
2022/04/06 01:32:24;;;;;;;;;9.67;7.67;;;26.08;97068.73;;;;117053;1192;24873;-41
2022/04/06 01:34:54;;;;;;;;;7.00;7.00;;;26.08;97071.84;;;;117050;1193;25253;-41
2022/04/06 01:37:22;;;;;;;;;7.25;7.25;;;26.08;97071.33;;;;117087;1192;24778;-40
2022/04/06 01:39:51;;;;;;;;;10.50;7.75;;;26.07;97071.53;;;;117073;1191;25015;-40
2022/04/06 01:42:22;;;;;;;;;12.50;8.50;;;26.06;97068.94;;;;117055;1192;25482;-41
2022/04/06 01:44:51;;;;;;;;;7.25;7.25;;;26.04;97069.97;;;;117046;1193;25141;-39
2022/04/06 01:47:21;;;;;;;;;9.67;7.33;;;26.04;97070.28;;;;117048;1193;25571;-41
2022/04/06 01:52:37;;;;;;;;;8.00;6.25;;;26.05;97070.31;;;;117068;1193;25756;-38
2022/04/06 01:55:13;;;;;;;;;5.67;4.67;;;26.03;97071.38;;;;117003;1192;25164;-40
2022/04/06 01:57:42;;;;;;;;;7.00;6.00;;;26.04;97072.15;;;;117112;1192;25600;-39
2022/04/06 02:00:15;;;;;;;;;6.50;6.25;;;26.07;97073.16;;;;117073;1191;25177;-39
2022/04/06 02:02:46;;;;;;;;;7.00;5.00;;;26.10;97071.98;;;;116968;1193;25315;-41
2022/04/06 02:05:15;;;;;;;;;7.50;7.50;;;26.13;97073.48;;;;117046;1193;26442;-41
2022/04/06 02:07:43;;;;;;;;;7.00;5.00;;;26.14;97073.79;;;;117033;1192;25060;-43
2022/04/06 02:10:11;;;;;;;;;9.75;8.50;;;26.12;97074.61;;;;117060;1193;24791;-41
2022/04/06 02:12:40;;;;;;;;;8.67;8.67;;;26.11;97077.48;;;;117059;1191;25733;-41
2022/04/06 02:15:10;;;;;;;;;7.25;7.25;;;26.11;97071.79;;;;117084;1193;25001;-40
2022/04/06 02:17:39;;;;;;;;;7.25;7.25;;;26.12;97072.55;;;;117051;1193;25509;-42
2022/04/06 02:20:08;;;;;;;;;8.67;7.67;;;26.12;97072.58;;;;117170;1193;25127;-40
2022/04/06 02:22:36;;;;;;;;;8.50;8.50;;;26.12;97075.14;;;;117082;1193;26254;-40
2022/04/06 02:25:05;;;;;;;;;7.00;7.00;;;26.11;97072.59;;;;117043;1193;25590;-40
2022/04/06 02:27:32;;;;;;;;;8.50;7.75;;;26.11;97071.79;;;;117038;1191;25179;-40
2022/04/06 02:30:00;;;;;;;;;6.33;6.33;;;26.09;97069.89;;;;117060;1192;24889;-39
2022/04/06 02:32:28;;;;;;;;;5.50;5.50;;;26.08;97071.67;;;;117030;1193;25034;-40
2022/04/06 02:34:56;;;;;;;;;9.00;7.00;;;26.08;97073.97;;;;117030;1192;25495;-41
2022/04/06 02:37:24;;;;;;;;;10.50;8.50;;;26.08;97074.77;;;;117006;1192;25445;-40
2022/04/06 02:39:52;;;;;;;;;7.00;7.00;;;26.06;97074.21;;;;117077;1193;25294;-40
2022/04/06 02:42:19;;;;;;;;;9.67;7.00;;;26.06;97072.73;;;;117057;1193;25282;-38
2022/04/06 02:44:47;;;;;;;;;10.75;8.00;;;26.04;97069.55;;;;117074;1191;25314;-39
2022/04/06 02:47:15;;;;;;;;;9.25;8.00;;;26.04;97072.21;;;;117069;1193;25505;-40
2022/04/06 02:49:43;;;;;;;;;8.25;8.25;;;26.03;97076.05;;;;117044;1192;25190;-40
2022/04/06 02:52:11;;;;;;;;;10.67;7.67;;;26.02;97073.33;;;;117076;1193;25133;-40
2022/04/06 02:54:39;;;;;;;;;7.00;5.00;;;26.02;97075.59;;;;117046;1193;25331;-41
2022/04/06 02:57:06;;;;;;;;;9.25;7.50;;;26.01;97076.02;;;;117023;1193;25337;-41
2022/04/06 02:59:34;;;;;;;;;7.75;6.50;;;26.01;97076.93;;;;117032;1192;25726;-39
2022/04/06 03:02:02;;;;;;;;;9.00;7.33;;;26.01;97079.62;;;;116983;1193;26088;-40
2022/04/06 03:04:30;;;;;;;;;6.25;6.25;;;26.00;97082.23;;;;117100;1193;24794;-40
2022/04/06 03:06:58;;;;;;;;;8.33;6.67;;;26.00;97084.90;;;;117027;1191;25335;-39
2022/04/06 03:09:26;;;;;;;;;9.00;5.33;;;25.98;97085.44;;;;117036;1192;25671;-40
2022/04/06 03:11:53;;;;;;;;;7.50;7.50;;;25.98;97084.95;;;;117022;1193;25887;-39
2022/04/06 03:14:21;;;;;;;;;8.50;7.50;;;25.98;97088.98;;;;117006;1193;24808;-41
2022/04/06 03:16:49;;;;;;;;;8.00;6.25;;;25.97;97086.99;;;;117114;1192;24998;-40
2022/04/06 03:19:17;;;;;;;;;9.00;9.00;;;26.01;97089.09;;;;117082;1192;24887;-41
2022/04/06 03:21:45;;;;;;;;;8.75;8.00;;;26.04;97086.99;;;;117079;1192;25605;-39
2022/04/06 03:24:13;;;;;;;;;8.00;7.50;;;26.03;97091.25;;;;117071;1191;25602;-39
2022/04/06 03:26:40;;;;;;;;;6.75;6.75;;;26.03;97090.58;;;;117012;1192;24873;-40
2022/04/06 03:29:08;;;;;;;;;8.50;8.50;;;26.05;97087.42;;;;117009;1192;25838;-40
2022/04/06 03:31:37;;;;;;;;;7.67;7.67;;;26.04;97085.93;;;;117023;1192;25688;-40
2022/04/06 03:34:05;;;;;;;;;7.50;7.00;;;26.06;97085.45;;;;117133;1192;25450;-40
2022/04/06 03:36:33;;;;;;;;;8.75;6.75;;;26.08;97087.98;;;;117065;1193;25283;-39
2022/04/06 03:39:01;;;;;;;;;9.25;6.75;;;26.08;97092.13;;;;117094;1192;25326;-39
2022/04/06 03:41:29;;;;;;;;;9.00;7.00;;;26.09;97090.96;;;;117008;1193;25236;-40
2022/04/06 03:43:57;;;;;;;;;9.75;6.50;;;26.09;97093.98;;;;117014;1192;24859;-39
2022/04/06 03:46:25;;;;;;;;;10.75;8.00;;;26.09;97095.93;;;;117076;1193;25063;-41
2022/04/06 03:48:53;;;;;;;;;7.50;7.50;;;26.09;97099.83;;;;117107;1193;25668;-41
2022/04/06 03:51:21;;;;;;;;;10.00;7.00;;;26.09;97103.60;;;;117063;1193;24732;-40
2022/04/06 03:53:48;;;;;;;;;7.75;7.00;;;26.08;97109.52;;;;117077;1193;24897;-40
2022/04/06 03:56:16;;;;;;;;;7.75;6.25;;;26.07;97112.10;;;;117087;1191;25747;-40
2022/04/06 03:58:44;;;;;;;;;8.25;8.25;;;26.08;97112.70;;;;117101;1193;24765;-40
2022/04/06 04:01:12;;;;;;;;;6.75;5.50;;;26.08;97113.64;;;;117088;1191;25429;-41
2022/04/06 04:03:42;;;;;;;;;5.75;5.75;;;26.08;97118.50;;;;117120;1191;25303;-40
2022/04/06 04:06:12;;;;;;;;;6.25;4.00;;;26.11;97118.95;;;;117087;1191;25462;-40
2022/04/06 04:08:40;;;;;;;;;7.33;6.33;;;26.10;97123.25;;;;117339;1191;25024;-41
2022/04/06 04:11:08;;;;;;;;;7.50;7.50;;;26.12;97124.61;;;;117102;1191;25734;-41
2022/04/06 04:13:36;;;;;;;;;12.00;6.75;;;26.12;97128.91;;;;117058;1193;25461;-41
2022/04/06 04:16:07;;;;;;;;;7.50;7.50;;;26.11;97128.59;;;;117042;1193;25518;-41
2022/04/06 04:18:36;;;;;;;;;4.50;4.50;;;26.10;97129.95;;;;117039;1193;25878;-40
2022/04/06 04:23:50;;;;;;;;;9.75;9.75;;;26.12;97143.23;;;;117051;1192;24838;-42
2022/04/06 04:26:19;;;;;;;;;8.33;6.33;;;26.08;97145.94;;;;117126;1193;25453;-42
2022/04/06 04:28:46;;;;;;;;;9.25;8.75;;;26.08;97144.09;;;;117051;1193;25189;-43
2022/04/06 04:31:14;;;;;;;;;9.67;8.00;;;26.08;97141.38;;;;117050;1193;25652;-41
2022/04/06 04:33:43;;;;;;;;;8.33;6.33;;;26.05;97143.79;;;;117113;1192;25336;-39
2022/04/06 04:36:11;;;;;;;;;12.00;9.25;;;26.03;97145.02;;;;117165;1193;24971;-41
2022/04/06 04:38:39;;;;;;;;;10.00;10.00;;;26.07;97145.37;;;;117073;1192;25595;-41
2022/04/06 04:41:07;;;;;;;;;6.00;6.00;;;26.07;97145.70;;;;117064;1192;25087;-40
2022/04/06 04:43:36;;;;;;;;;10.00;8.00;;;26.05;97146.40;;;;117069;1193;25452;-44
2022/04/06 04:46:06;;;;;;;;;9.75;8.50;;;26.05;97156.38;;;;117208;1193;25278;-43
2022/04/06 04:48:35;;;;;;;;;11.50;8.50;;;26.07;97159.13;;;;117062;1193;25558;-39
2022/04/06 04:51:04;;;;;;;;;11.50;9.25;;;26.09;97158.45;;;;117043;1193;25562;-43
2022/04/06 04:53:39;;;;;;;;;13.00;10.00;;;26.10;97158.77;;;;117127;1193;24929;-42
2022/04/06 04:56:09;;;;;;;;;13.00;11.67;;;26.11;97162.92;;;;117098;1193;25012;-41
2022/04/06 04:58:39;;;;;;;;;17.00;12.67;;;26.11;97169.56;;;;117261;1192;25402;-41
2022/04/06 05:01:08;;;;;;;;;12.25;10.25;;;26.22;97172.90;;;;117258;1193;24929;-40
2022/04/06 05:03:35;;;;;;;;;12.00;11.00;;;26.27;97178.35;;;;117185;1192;25300;-43
2022/04/06 05:06:05;;;;;;;;;10.50;10.00;;;26.29;97184.31;;;;117480;1192;24827;-40
2022/04/06 05:08:33;;;;;;;;;11.75;10.50;;;26.37;97181.45;;;;117138;1191;24861;-43
2022/04/06 05:11:01;;;;;;;;;15.67;12.33;;;26.31;97180.91;;;;117145;1192;25113;-42
2022/04/06 05:13:29;;;;;;;;;15.33;12.33;;;26.29;97183.74;;;;117149;1192;25832;-41
2022/04/06 05:16:01;;;;;;;;;12.25;11.75;;;26.24;97183.21;;;;117508;1193;25573;-43
2022/04/06 05:18:29;;;;;;;;;16.33;14.00;;;26.39;97188.91;;;;117179;1192;25679;-42
2022/04/06 05:20:57;;;;;;;;;15.50;12.50;;;26.35;97188.67;;;;117319;1193;25696;-41
2022/04/06 05:23:26;;;;;;;;;16.50;14.50;;;26.27;97190.59;;;;117086;1191;25655;-40
2022/04/06 05:25:54;;;;;;;;;16.00;14.75;;;26.18;97198.38;;;;117280;1193;25404;-40
2022/04/06 05:28:22;;;;;;;;;17.00;13.00;;;26.21;97199.84;;;;116995;1192;25223;-41
2022/04/06 05:30:51;;;;;;;;;18.00;14.50;;;26.14;97205.73;;;;117112;1193;24802;-41
2022/04/06 05:33:19;;;;;;;;;18.25;15.00;;;26.14;97211.45;;;;117073;1192;24829;-44
2022/04/06 05:35:49;;;;;;;;;19.33;16.00;;;26.07;97218.91;;;;117145;1192;25680;-44
2022/04/06 05:38:19;;;;;;;;;16.33;15.33;;;26.06;97223.64;;;;117124;1193;24814;-40
2022/04/06 05:40:47;;;;;;;;;17.50;15.50;;;26.07;97221.67;;;;117176;1192;25554;-42
2022/04/06 05:43:15;;;;;;;;;17.33;16.00;;;26.14;97219.90;;;;117105;1193;25007;-43
2022/04/06 05:45:43;;;;;;;;;22.00;17.67;;;26.13;97219.16;;;;117011;1193;25251;-42
2022/04/06 05:48:11;;;;;;;;;21.67;16.33;;;26.08;97217.75;;;;117182;1192;24999;-40
2022/04/06 05:50:39;;;;;;;;;13.00;11.00;;;26.11;97212.77;;;;117077;1192;25365;-42
2022/04/06 05:53:10;;;;;;;;;14.00;11.67;;;26.09;97215.85;;;;117043;1193;25913;-42
2022/04/06 05:55:38;;;;;;;;;18.00;14.67;;;26.05;97214.63;;;;117035;1193;26176;-41
2022/04/06 05:58:06;;;;;;;;;22.50;17.75;;;26.06;97208.33;;;;117091;1192;24966;-42
2022/04/06 06:00:37;;;;;;;;;18.67;16.33;;;26.06;97209.55;;;;117155;1193;25473;-42
2022/04/06 06:03:05;;;;;;;;;18.67;16.00;;;26.04;97207.88;;;;116998;1192;25216;-42
2022/04/06 06:05:35;;;;;;;;;21.67;19.67;;;26.00;97206.84;;;;117118;1191;24765;-42
2022/04/06 06:08:11;;;;;;;;;12.67;11.00;;;26.02;97207.56;;;;117030;1193;25536;-43
2022/04/06 06:10:43;;;;;;;;;22.50;20.00;;;26.03;97207.23;;;;117041;1193;25373;-41
2022/04/06 06:13:20;;;;;;;;;21.33;18.00;;;25.99;97206.45;;;;117363;1192;24895;-40
2022/04/06 06:15:49;;;;;;;;;26.00;23.00;;;26.07;97205.66;;;;117095;1192;25415;-40
2022/04/06 06:18:18;;;;;;;;;18.50;14.50;;;26.01;97206.82;;;;117375;1192;24904;-43
2022/04/06 06:20:48;;;;;;;;;20.00;18.67;;;26.10;97211.77;;;;117245;1193;25450;-40
2022/04/06 06:23:18;;;;;;;;;20.33;20.33;;;26.14;97210.48;;;;117217;1192;25085;-44
2022/04/06 06:25:48;;;;;;;;;19.00;18.00;;;26.09;97213.77;;;;117331;1192;24954;-41
2022/04/06 06:28:16;;;;;;;;;24.00;19.67;;;26.11;97212.39;;;;117354;1191;25715;-43
2022/04/06 06:30:44;;;;;;;;;24.00;21.00;;;26.17;97212.81;;;;117332;1192;25318;-41
2022/04/06 06:33:13;;;;;;;;;19.67;17.67;;;26.14;97216.65;;;;117249;1192;25327;-40
2022/04/06 06:35:41;;;;;;;;;21.67;18.67;;;26.15;97214.52;;;;117177;1193;25231;-40
2022/04/06 06:38:11;;;;;;;;;23.33;19.00;;;26.11;97216.20;;;;117433;1192;25466;-41
2022/04/06 06:40:41;;;;;;;;;21.33;20.67;;;26.16;97210.69;;;;117194;1192;25963;-42
2022/04/06 06:43:09;;;;;;;;;23.00;19.67;;;26.09;97210.16;;;;117178;1192;25250;-42
2022/04/06 06:45:36;;;;;;;;;22.67;19.67;;;26.05;97214.75;;;;117213;1193;25079;-40
2022/04/06 06:48:05;;;;;;;;;23.00;21.50;;;26.00;97218.74;;;;117064;1192;25249;-39
2022/04/06 06:50:38;;;;;;;;;30.67;20.33;;;26.06;97219.52;;;;117269;1192;25340;-42
2022/04/06 06:53:10;;;;;;;;;24.67;17.33;;;26.05;97226.75;;;;117051;1192;26390;-40
2022/04/06 06:55:46;;;;;;;;;21.25;18.75;;;26.04;97227.91;;;;117143;1193;25589;-41
2022/04/06 06:58:22;;;;;;;;;17.67;17.00;;;26.10;97228.75;;;;117179;1191;24771;-40
2022/04/06 07:00:57;;;;;;;;;19.00;14.50;;;26.16;97225.30;;;;117225;1193;25434;-40
2022/04/06 07:03:25;;;;;;;;;15.75;15.75;;;26.25;97221.52;;;;117285;1192;25104;-40
2022/04/06 07:05:56;;;;;;;;;17.00;15.00;;;26.32;97220.63;;;;117242;1193;25340;-40
2022/04/06 07:08:23;;;;;;;;;15.00;15.00;;;26.36;97218.41;;;;117124;1192;26555;-43
2022/04/06 07:10:55;;;;;;;;;13.67;12.00;;;26.36;97226.41;;;;117208;1193;24768;-43
2022/04/06 07:13:28;;;;;;;;;20.67;16.67;;;26.38;97220.94;;;;117213;1193;24952;-41
2022/04/06 07:15:59;;;;;;;;;27.33;17.33;;;26.42;97221.36;;;;117296;1193;26262;-40
2022/04/06 07:18:29;;;;;;;;;19.50;17.00;;;26.41;97221.19;;;;117059;1193;25771;-40
2022/04/06 07:21:00;;;;;;;;;22.33;17.67;;;26.42;97221.51;;;;117113;1192;25097;-45
2022/04/06 07:23:28;;;;;;;;;22.00;17.25;;;26.39;97220.73;;;;117068;1193;24737;-43
2022/04/06 07:25:56;;;;;;;;;19.50;16.00;;;26.38;97227.25;;;;117066;1192;24951;-40
2022/04/06 07:28:25;;;;;;;;;16.50;16.00;;;26.36;97230.86;;;;117320;1193;25823;-41
2022/04/06 07:30:52;;;;;;;;;17.33;16.33;;;26.43;97224.05;;;;117120;1191;24941;-40
2022/04/06 07:33:20;;;;;;;;;21.00;16.00;;;26.41;97231.48;;;;117192;1193;25606;-41
2022/04/06 07:35:48;;;;;;;;;14.25;13.50;;;26.41;97241.20;;;;117145;1192;25618;-39
2022/04/06 07:38:18;;;;;;;;;14.33;14.00;;;26.42;97242.03;;;;117062;1193;25229;-40
2022/04/06 07:40:46;;;;;;;;;14.00;14.00;;;26.41;97243.68;;;;117222;1192;26231;-44
2022/04/06 07:43:14;;;;;;;;;16.00;13.25;;;26.43;97242.75;;;;117113;1193;25615;-41
2022/04/06 07:45:42;;;;;;;;;16.00;13.00;;;26.40;97243.88;;;;117038;1193;25057;-42
2022/04/06 07:48:10;;;;;;;;;23.00;15.50;;;26.42;97245.30;;;;117041;1194;25137;-41
2022/04/06 07:50:38;;;;;;;;;15.50;14.50;;;26.43;97250.31;;;;117159;1193;25706;-41
2022/04/06 07:53:06;;;;;;;;;17.00;13.33;;;26.50;97249.41;;;;117013;1192;26191;-42
2022/04/06 07:55:34;;;;;;;;;14.00;13.50;;;26.46;97251.92;;;;117178;1193;25421;-41
2022/04/06 07:58:02;;;;;;;;;10.25;10.25;;;26.52;97254.08;;;;117058;1192;25447;-43
2022/04/06 08:00:33;;;;;;;;;21.33;12.67;;;26.48;97257.47;;;;117341;1193;26074;-41
2022/04/06 08:03:01;;;;;;;;;11.00;10.00;;;26.55;97261.70;;;;117138;1192;24775;-40
2022/04/06 08:05:30;;;;;;;;;16.67;13.33;;;26.55;97264.42;;;;117155;1193;25243;-42
2022/04/06 08:07:57;;;;;;;;;14.00;11.50;;;26.56;97264.29;;;;117057;1193;25161;-41
2022/04/06 08:10:28;;;;;;;;;12.50;9.75;;;26.52;97266.77;;;;117014;1193;24949;-40
2022/04/06 08:12:56;;;;;;;;;11.00;8.33;;;26.50;97267.53;;;;117123;1193;25527;-40
2022/04/06 08:15:24;;;;;;;;;12.50;12.50;;;26.51;97267.34;;;;117084;1192;24993;-41
2022/04/06 08:17:52;;;;;;;;;15.00;11.25;;;26.51;97266.98;;;;117126;1193;24851;-41
2022/04/06 08:20:21;;;;;;;;;19.33;17.00;;;26.52;97264.95;;;;117096;1192;24883;-40
2022/04/06 08:22:50;;;;;;;;;11.50;10.00;;;26.54;97263.02;;;;117103;1193;24928;-41
2022/04/06 08:25:18;;;;;;;;;17.00;12.00;;;26.55;97265.43;;;;117228;1192;25888;-40
2022/04/06 08:28:05;;;;;;;;;16.00;12.00;;;26.58;97269.96;;;;117021;1194;25334;-38
2022/04/06 08:30:44;;;;;;;;;11.25;9.75;;;26.58;97270.84;;;;117161;1192;25505;-40
2022/04/06 08:33:12;;;;;;;;;11.25;11.25;;;26.62;97274.45;;;;117233;1193;25714;-40
2022/04/06 08:35:43;;;;;;;;;11.00;9.00;;;26.69;97274.42;;;;117050;1193;25587;-41
2022/04/06 08:38:15;;;;;;;;;12.25;7.75;;;26.67;97280.60;;;;117221;1193;25612;-42
2022/04/06 08:40:44;;;;;;;;;12.00;11.00;;;26.74;97282.30;;;;116990;1193;24718;-41
2022/04/06 08:43:14;;;;;;;;;13.25;8.50;;;26.73;97284.13;;;;117264;1189;25529;-42
2022/04/06 08:45:43;;;;;;;;;11.75;10.25;;;26.79;97282.66;;;;117126;1192;25135;-42
2022/04/06 08:48:11;;;;;;;;;12.00;10.00;;;26.80;97286.42;;;;117155;1193;24983;-43
2022/04/06 08:50:39;;;;;;;;;13.50;9.00;;;26.82;97282.77;;;;117121;1192;25420;-42
2022/04/06 08:53:08;;;;;;;;;11.25;8.75;;;26.82;97283.14;;;;117134;1193;25634;-41
2022/04/06 08:55:36;;;;;;;;;7.00;3.00;;;26.83;97284.54;;;;117119;1193;25599;-40
2022/04/06 08:58:05;;;;;;;;;8.33;8.33;;;26.86;97284.10;;;;117259;1191;25221;-42
2022/04/06 09:00:33;;;;;;;;;9.00;6.75;;;26.93;97281.56;;;;117210;1192;25581;-41
2022/04/06 09:03:00;;;;;;;;;14.00;7.67;;;26.98;97281.26;;;;117187;1192;25381;-42
2022/04/06 09:05:32;;;;;;;;;8.75;8.75;;;27.02;97280.54;;;;117187;1192;25490;-41
2022/04/06 09:08:05;;;;;;;;;10.00;10.00;;;27.08;97280.81;;;;117202;1193;24855;-41
2022/04/06 09:10:41;;;;;;;;;7.33;7.33;;;27.16;97281.05;;;;117159;1192;25531;-46
2022/04/06 09:13:14;;;;;;;;;8.00;6.00;;;27.19;97280.80;;;;117085;1193;25464;-41
2022/04/06 09:15:44;;;;;;;;;10.25;9.75;;;27.19;97280.93;;;;117084;1191;25038;-43
2022/04/06 09:18:13;;;;;;;;;9.25;8.00;;;27.18;97282.11;;;;117237;1191;25674;-41
2022/04/06 09:20:41;;;;;;;;;8.25;7.50;;;27.25;97281.61;;;;117030;1193;25557;-41
2022/04/06 09:23:09;;;;;;;;;8.50;8.25;;;27.22;97276.58;;;;117839;1193;25178;-41
2022/04/06 09:25:39;;;;;;;;;9.33;8.00;;;27.43;97273.23;;;;117636;1192;25374;-42
2022/04/06 09:28:12;;;;;;;;;11.50;8.25;;;27.54;97276.65;;;;117486;1193;25021;-43
2022/04/06 09:30:45;;;;;;;;;8.00;8.00;;;27.58;97275.96;;;;117565;1192;24854;-40
2022/04/06 09:33:21;;;;;;;;;8.25;6.75;;;27.63;97275.45;;;;117602;1192;25025;-41
2022/04/06 09:35:50;;;;;;;;;7.00;6.00;;;27.67;97271.02;;;;117574;1193;24976;-42
2022/04/06 09:38:22;;;;;;;;;8.00;7.25;;;27.72;97274.98;;;;117590;1193;24949;-41
2022/04/06 09:41:04;;;;;;;;;10.25;6.75;;;27.74;97270.17;;;;117441;1192;25128;-43
2022/04/06 09:43:34;;;;;;;;;7.00;7.00;;;27.78;97267.63;;;;117486;1192;25821;-41
2022/04/06 09:49:14;;;;;;;;;8.00;7.00;;;27.79;97264.15;;;;117628;1192;25359;-41
2022/04/06 09:51:43;;;;;;;;;11.75;8.75;;;27.81;97259.57;;;;117547;1192;25614;-42
2022/04/06 09:54:12;;;;;;;;;7.50;7.50;;;27.77;97252.20;;;;117555;1193;26716;-43
2022/04/06 09:56:42;;;;;;;;;7.00;6.67;;;27.78;97251.51;;;;117351;1192;25585;-42
2022/04/06 09:59:11;;;;;;;;;9.67;7.00;;;27.69;97247.59;;;;117548;1193;25289;-42
2022/04/06 10:01:45;;;;;;;;;8.33;7.00;;;27.70;97246.80;;;;117429;1192;25171;-42
2022/04/06 10:04:21;;;;;;;;;11.25;8.50;;;27.66;97243.22;;;;117578;1192;25278;-42
2022/04/06 10:06:49;;;;;;;;;5.50;4.25;;;27.66;97245.52;;;;117742;1192;25484;-43
2022/04/06 10:09:17;;;;;;;;;4.25;4.25;;;27.72;97242.02;;;;117803;1192;25576;-41
2022/04/06 10:11:45;;;;;;;;;9.75;7.50;;;27.81;97243.48;;;;117794;1193;25709;-41
2022/04/06 10:14:13;;;;;;;;;8.25;7.25;;;27.86;97240.27;;;;117653;1192;25450;-43
2022/04/06 10:16:41;;;;;;;;;5.00;5.00;;;27.84;97236.98;;;;117689;1192;25724;-42
2022/04/06 10:19:13;;;;;;;;;9.50;7.75;;;27.83;97236.89;;;;117606;1193;25370;-41
2022/04/06 10:21:53;;;;;;;;;6.25;4.00;;;27.79;97235.49;;;;117600;1193;25778;-42
2022/04/06 10:24:22;;;;;;;;;6.50;6.50;;;27.80;97231.91;;;;117593;1193;25669;-41
2022/04/06 10:27:28;;;;;;;;;7.25;4.75;;;27.86;97229.89;;;;117634;1191;25435;-41
2022/04/06 10:30:06;;;;;;;;;9.25;7.50;;;27.87;97226.91;;;;117550;1192;24929;-40
2022/04/06 10:32:37;;;;;;;;;8.67;7.67;;;27.88;97228.95;;;;117792;1192;24731;-41
2022/04/06 10:35:24;;;;;;;;;7.50;6.50;;;27.98;97228.83;;;;117838;1192;26078;-45
2022/04/06 10:37:58;;;;;;;;;8.75;6.75;;;28.06;97226.70;;;;117762;1192;24913;-42
2022/04/06 10:40:43;;;;;;;;;8.00;5.00;;;28.02;97226.09;;;;117875;1191;24904;-41
2022/04/06 10:43:40;;;;;;;;;8.00;7.00;;;28.04;97224.03;;;;117751;1192;25492;-41
2022/04/06 10:46:10;;;;;;;;;9.00;7.00;;;28.11;97220.62;;;;117776;1192;25894;-42
2022/04/06 10:48:58;;;;;;;;;8.50;5.50;;;28.13;97221.19;;;;117466;1193;25269;-42
2022/04/06 10:51:38;;;;;;;;;6.50;6.25;;;28.12;97216.30;;;;117612;1193;25465;-41
2022/04/06 10:54:13;;;;;;;;;7.67;4.00;;;28.07;97214.61;;;;117635;1191;25488;-40
2022/04/06 10:56:54;;;;;;;;;4.67;4.67;;;28.07;97212.84;;;;117680;1192;24905;-41
2022/04/06 10:59:23;;;;;;;;;7.75;5.00;;;28.03;97211.92;;;;117798;1192;24821;-42
2022/04/06 11:02:19;;;;;;;;;6.25;6.25;;;28.05;97211.59;;;;117597;1193;24887;-42
2022/04/06 11:04:51;;;;;;;;;2.25;0.50;;;28.03;97209.35;;;;117771;1193;25312;-41
2022/04/06 11:10:22;;;;;;;;;4.50;4.50;;;28.12;97209.04;;;;117672;1192;24813;-42
2022/04/06 11:13:08;;;;;;;;;6.67;6.67;;;28.05;97207.89;;;;117604;1192;25553;-42
2022/04/06 11:15:40;;;;;;;;;6.50;5.25;;;28.04;97206.13;;;;117673;1192;25702;-41
2022/04/06 11:18:49;;;;;;;;;9.00;7.50;;;28.08;97205.02;;;;117630;1192;25087;-42
2022/04/06 11:21:19;;;;;;;;;10.00;7.00;;;28.16;97201.48;;;;117584;1190;25317;-41
2022/04/06 11:23:50;;;;;;;;;8.00;7.00;;;28.10;97196.17;;;;117674;1193;25270;-42
2022/04/06 11:26:20;;;;;;;;;6.25;4.50;;;28.14;97193.41;;;;117676;1193;25487;-42
2022/04/06 11:29:00;;;;;;;;;7.33;5.67;;;28.24;97189.48;;;;117971;1193;25575;-44
2022/04/06 11:31:27;;;;;;;;;5.00;5.00;;;28.42;97186.98;;;;117852;1192;25354;-42
2022/04/06 11:33:56;;;;;;;;;7.75;6.50;;;28.50;97183.49;;;;117771;1192;25338;-42
2022/04/06 11:36:29;;;;;;;;;6.67;6.67;;;28.51;97180.48;;;;117628;1192;25584;-42
2022/04/06 11:38:58;;;;;;;;;5.00;4.00;;;28.54;97176.42;;;;117737;1193;24981;-41
2022/04/06 11:41:51;;;;;;;;;6.75;5.00;;;28.56;97172.42;;;;117702;1192;25460;-42
2022/04/06 11:44:21;;;;;;;;;5.67;5.00;;;28.67;97166.36;;;;117366;1192;26250;-41
2022/04/06 11:46:54;;;;;;;;;5.50;5.50;;;28.64;97164.96;;;;117226;1192;25130;-41
2022/04/06 11:49:26;;;;;;;;;7.50;5.00;;;28.54;97163.27;;;;117222;1192;24905;-42
2022/04/06 11:51:54;;;;;;;;;3.67;2.67;;;28.47;97166.17;;;;117445;1193;26174;-41
2022/04/06 11:54:27;;;;;;;;;6.33;6.33;;;28.50;97163.64;;;;117168;1193;25027;-41
2022/04/06 11:56:59;;;;;;;;;4.75;4.75;;;28.47;97160.32;;;;117202;1192;24959;-42
2022/04/06 11:59:31;;;;;;;;;7.25;4.75;;;28.45;97153.95;;;;117201;1192;25014;-42
2022/04/06 12:02:02;;;;;;;;;9.00;6.75;;;28.46;97147.67;;;;117617;1192;25572;-42
2022/04/06 12:04:32;;;;;;;;;11.00;8.25;;;28.60;97147.58;;;;117334;1192;24747;-41
2022/04/06 12:07:00;;;;;;;;;9.00;5.00;;;28.63;97137.85;;;;117251;1193;25224;-42
2022/04/06 12:09:31;;;;;;;;;10.25;7.50;;;28.61;97133.92;;;;117249;1192;24865;-43
2022/04/06 12:11:59;;;;;;;;;13.00;8.75;;;28.63;97129.80;;;;117415;1192;25314;-40
2022/04/06 12:14:35;;;;;;;;;9.50;7.25;;;28.68;97117.81;;;;117360;1191;25699;-41
2022/04/06 12:17:03;;;;;;;;;8.33;7.67;;;28.73;97109.92;;;;117389;1192;25018;-40
2022/04/06 12:19:31;;;;;;;;;8.00;6.75;;;28.78;97106.98;;;;117384;1194;25681;-43
2022/04/06 12:22:10;;;;;;;;;7.25;5.00;;;28.79;97097.70;;;;117282;1192;25776;-40
2022/04/06 12:24:39;;;;;;;;;11.00;8.67;;;28.77;97095.49;;;;117357;1191;25373;-41
2022/04/06 12:27:08;;;;;;;;;10.00;7.75;;;28.78;97096.55;;;;117475;1191;24816;-41
2022/04/06 12:29:38;;;;;;;;;6.00;6.00;;;28.83;97094.78;;;;117267;1191;25815;-41